createdAt,value
2019-01-25T00:00:36.271Z,-2.03
2019-01-25T00:01:36.275Z,-2.06
2019-01-25T00:02:36.314Z,-2.09
2019-01-25T00:03:36.300Z,-2.03
2019-01-25T00:04:36.295Z,-2.06
2019-01-25T00:05:36.306Z,-2.12
2019-01-25T00:06:36.310Z,-1.97
2019-01-25T00:07:36.315Z,-2.08
2019-01-25T00:08:36.336Z,-2.06
2019-01-25T00:09:36.331Z,-1.91
2019-01-25T00:10:36.336Z,-1.90
2019-01-25T00:11:36.341Z,-1.92
2019-01-25T00:12:36.350Z,-1.88
2019-01-25T00:13:36.354Z,-1.87
2019-01-25T00:14:36.363Z,-1.79
2019-01-25T00:15:36.370Z,-1.90
2019-01-25T00:16:36.376Z,-1.94
2019-01-25T00:17:36.381Z,-1.91
2019-01-25T00:18:36.473Z,-1.91
2019-01-25T00:19:36.401Z,-1.91
2019-01-25T00:20:36.407Z,-1.88
2019-01-25T00:21:36.442Z,-1.92
2019-01-25T00:22:36.413Z,-1.88
2019-01-25T00:23:36.424Z,-1.90
2019-01-25T00:24:36.457Z,-1.90
2019-01-25T00:25:36.437Z,-1.94
2019-01-25T00:26:36.478Z,-1.94
2019-01-25T00:27:36.458Z,-1.94
2019-01-25T00:28:36.466Z,-1.94
2019-01-25T00:29:36.467Z,-1.90
2019-01-25T00:30:36.467Z,-1.88
2019-01-25T00:31:36.482Z,-1.90
2019-01-25T00:32:36.488Z,-1.90
2019-01-25T00:33:36.490Z,-1.98
2019-01-25T00:34:36.515Z,-1.87
2019-01-25T00:35:36.501Z,-1.91
2019-01-25T00:36:36.526Z,-1.91
2019-01-25T00:37:36.520Z,-1.92
2019-01-25T00:38:36.519Z,-1.88
2019-01-25T00:39:36.530Z,-1.98
2019-01-25T00:40:36.536Z,-1.98
2019-01-25T00:41:36.549Z,-2.02
2019-01-25T00:42:36.551Z,-1.97
2019-01-25T00:43:36.557Z,-1.97
2019-01-25T00:44:36.567Z,-1.88
2019-01-25T00:45:36.569Z,-1.87
2019-01-25T00:46:36.582Z,-1.90
2019-01-25T00:47:36.618Z,-2.03
2019-01-25T00:48:36.595Z,-2.00
2019-01-25T00:49:36.600Z,-2.03
2019-01-25T00:50:36.624Z,-2.00
2019-01-25T00:51:36.608Z,-2.02
2019-01-25T00:52:36.637Z,-1.95
2019-01-25T00:53:36.620Z,-1.92
2019-01-25T00:54:36.687Z,-1.94
2019-01-25T00:55:36.648Z,-1.95
2019-01-25T00:56:36.654Z,-1.90
2019-01-25T00:57:36.653Z,-1.90
2019-01-25T00:58:36.655Z,-1.97
2019-01-25T00:59:36.666Z,-1.88
2019-01-25T01:00:36.677Z,-1.88
2019-01-25T01:01:36.705Z,-1.87
2019-01-25T01:02:36.686Z,-1.92
2019-01-25T01:03:36.710Z,-1.88
2019-01-25T01:04:36.704Z,-1.94
2019-01-25T01:05:36.699Z,-1.92
2019-01-25T01:06:36.704Z,-1.90
2019-01-25T01:07:36.728Z,-1.94
2019-01-25T01:08:36.721Z,-1.87
2019-01-25T01:09:36.734Z,-1.94
2019-01-25T01:10:36.738Z,-1.94
2019-01-25T01:11:36.742Z,-1.87
2019-01-25T01:12:36.757Z,-1.85
2019-01-25T01:13:36.767Z,-1.82
2019-01-25T01:14:36.810Z,-1.90
2019-01-25T01:15:36.770Z,-1.79
2019-01-25T01:16:36.774Z,-1.77
2019-01-25T01:17:36.782Z,-1.74
2019-01-25T01:18:36.788Z,-1.70
2019-01-25T01:19:36.797Z,-1.73
2019-01-25T01:20:36.831Z,-1.64
2019-01-25T01:21:36.808Z,-1.66
2019-01-25T01:22:36.812Z,-1.77
2019-01-25T01:23:36.821Z,-1.77
2019-01-25T01:24:36.833Z,-1.91
2019-01-25T01:25:36.835Z,-1.90
2019-01-25T01:26:36.839Z,-1.88
2019-01-25T01:27:36.900Z,-1.94
2019-01-25T01:28:36.863Z,-1.90
2019-01-25T01:29:36.865Z,-1.80
2019-01-25T01:30:36.876Z,-1.90
2019-01-25T01:31:36.874Z,-1.82
2019-01-25T01:32:36.887Z,-1.87
2019-01-25T01:33:36.890Z,-1.74
2019-01-25T01:34:36.899Z,-1.80
2019-01-25T01:35:36.925Z,-1.88
2019-01-25T01:36:36.916Z,-1.84
2019-01-25T01:37:36.917Z,-1.94
2019-01-25T01:38:36.926Z,-1.90
2019-01-25T01:39:36.939Z,-1.90
2019-01-25T01:40:36.934Z,-1.92
2019-01-25T01:41:36.948Z,-1.94
2019-01-25T01:42:36.952Z,-1.87
2019-01-25T01:43:36.956Z,-1.91
2019-01-25T01:44:36.966Z,-1.90
2019-01-25T01:45:36.970Z,-1.97
2019-01-25T01:46:36.980Z,-1.92
2019-01-25T01:47:37.004Z,-1.85
2019-01-25T01:48:37.013Z,-1.88
2019-01-25T01:51:37.013Z,-1.91
2019-01-25T01:52:37.020Z,-1.88
2019-01-25T01:53:37.027Z,-1.88
2019-01-25T01:54:37.032Z,-1.90
2019-01-25T01:55:37.040Z,-1.91
2019-01-25T01:56:37.055Z,-1.92
2019-01-25T01:57:37.075Z,-1.92
2019-01-25T01:58:37.388Z,-1.95
2019-01-25T01:59:37.070Z,-1.90
2019-01-25T02:00:37.070Z,-1.94
2019-01-25T02:01:37.089Z,-1.92
2019-01-25T02:02:37.085Z,-1.84
2019-01-25T02:03:37.102Z,-1.80
2019-01-25T02:04:37.102Z,-1.85
2019-01-25T02:05:37.106Z,-1.77
2019-01-25T02:06:37.117Z,-1.87
2019-01-25T02:07:37.178Z,-1.74
2019-01-25T02:08:37.126Z,-1.88
2019-01-25T02:09:37.133Z,-1.80
2019-01-25T02:10:37.150Z,-1.98
2019-01-25T02:11:37.148Z,-1.92
2019-01-25T02:12:37.174Z,-1.87
2019-01-25T02:13:37.160Z,-1.97
2019-01-25T02:14:37.168Z,-1.91
2019-01-25T02:15:37.174Z,-1.95
2019-01-25T02:16:37.181Z,-1.87
2019-01-25T02:17:37.183Z,-1.91
2019-01-25T02:18:37.193Z,-1.80
2019-01-25T02:19:37.203Z,-1.82
2019-01-25T02:20:37.206Z,-1.80
2019-01-25T02:21:37.217Z,-1.84
2019-01-25T02:22:37.244Z,-1.82
2019-01-25T02:23:37.228Z,-1.84
2019-01-25T02:24:37.231Z,-1.85
2019-01-25T02:25:37.240Z,-1.91
2019-01-25T02:26:37.244Z,-1.92
2019-01-25T02:27:37.266Z,-2.03
2019-01-25T02:28:37.296Z,-1.97
2019-01-25T02:29:37.272Z,-1.91
2019-01-25T02:30:37.312Z,-1.90
2019-01-25T02:31:37.286Z,-1.92
2019-01-25T02:32:37.329Z,-1.94
2019-01-25T02:33:37.295Z,-1.92
2019-01-25T02:34:37.303Z,-1.84
2019-01-25T02:35:37.314Z,-1.94
2019-01-25T02:36:37.317Z,-1.91
2019-01-25T02:37:37.329Z,-1.85
2019-01-25T02:38:37.326Z,-1.92
2019-01-25T02:39:37.334Z,-1.88
2019-01-25T02:40:39.185Z,-1.98
2019-01-25T02:41:37.353Z,-1.91
2019-01-25T02:42:37.368Z,-1.82
2019-01-25T02:43:37.367Z,-1.85
2019-01-25T02:44:37.371Z,-1.84
2019-01-25T02:45:37.374Z,-1.92
2019-01-25T02:46:37.383Z,-1.95
2019-01-25T02:47:37.395Z,-1.88
2019-01-25T02:48:37.398Z,-1.72
2019-01-25T02:49:37.403Z,-1.69
2019-01-25T02:50:37.425Z,-1.72
2019-01-25T02:51:37.423Z,-1.67
2019-01-25T02:52:37.425Z,-1.77
2019-01-25T02:53:37.430Z,-1.94
2019-01-25T02:54:37.451Z,-1.92
2019-01-25T02:55:37.444Z,-1.98
2019-01-25T02:56:37.450Z,-1.97
2019-01-25T02:57:37.460Z,-1.92
2019-01-25T02:58:37.467Z,-1.94
2019-01-25T02:59:37.470Z,-1.94
2019-01-25T03:00:37.516Z,-1.98
2019-01-25T03:01:37.635Z,-1.98
2019-01-25T03:02:37.494Z,-2.03
2019-01-25T03:03:37.501Z,-1.98
2019-01-25T03:04:37.518Z,-1.91
2019-01-25T03:05:37.512Z,-1.88
2019-01-25T03:06:37.516Z,-1.91
2019-01-25T03:07:37.527Z,-1.92
2019-01-25T03:08:37.529Z,-1.94
2019-01-25T03:09:37.554Z,-1.91
2019-01-25T03:10:37.544Z,-1.84
2019-01-25T03:11:37.564Z,-1.91
2019-01-25T03:12:37.559Z,-1.80
2019-01-25T03:13:37.567Z,-1.84
2019-01-25T03:14:37.583Z,-1.80
2019-01-25T03:15:37.582Z,-1.82
2019-01-25T03:16:37.608Z,-1.90
2019-01-25T03:17:37.608Z,-1.84
2019-01-25T03:18:37.601Z,-1.90
2019-01-25T03:19:37.605Z,-1.84
2019-01-25T03:20:37.608Z,-1.77
2019-01-25T03:21:37.620Z,-1.85
2019-01-25T03:22:37.627Z,-1.87
2019-01-25T03:23:37.635Z,-1.77
2019-01-25T03:24:37.646Z,-1.80
2019-01-25T03:25:37.645Z,-1.95
2019-01-25T03:26:37.653Z,-1.88
2019-01-25T03:27:37.688Z,-1.94
2019-01-25T03:28:37.661Z,-1.91
2019-01-25T03:29:37.686Z,-1.90
2019-01-25T03:30:37.682Z,-1.85
2019-01-25T03:31:38.099Z,-1.90
2019-01-25T03:32:37.692Z,-1.92
2019-01-25T03:33:37.698Z,-1.94
2019-01-25T03:34:37.706Z,-1.84
2019-01-25T03:35:37.711Z,-1.77
2019-01-25T03:36:37.713Z,-1.77
2019-01-25T03:37:37.730Z,-1.64
2019-01-25T03:38:37.727Z,-1.69
2019-01-25T03:39:37.752Z,-1.67
2019-01-25T03:40:37.747Z,-1.59
2019-01-25T03:41:37.749Z,-1.67
2019-01-25T03:42:37.769Z,-1.70
2019-01-25T03:43:37.771Z,-1.69
2019-01-25T03:44:37.768Z,-1.70
2019-01-25T03:45:37.774Z,-1.64
2019-01-25T03:46:37.786Z,-1.64
2019-01-25T03:47:37.795Z,-1.72
2019-01-25T03:48:37.797Z,-1.80
2019-01-25T03:49:37.866Z,-1.80
2019-01-25T03:50:37.813Z,-1.94
2019-01-25T03:51:37.822Z,-1.87
2019-01-25T03:52:37.824Z,-1.90
2019-01-25T03:53:37.836Z,-1.91
2019-01-25T03:54:37.839Z,-1.87
2019-01-25T03:55:37.844Z,-1.82
2019-01-25T03:56:37.849Z,-1.80
2019-01-25T03:57:37.879Z,-1.84
2019-01-25T03:58:37.872Z,-1.90
2019-01-25T03:59:37.873Z,-1.91
2019-01-25T04:00:37.886Z,-1.94
2019-01-25T04:01:37.884Z,-1.98
2019-01-25T04:02:37.894Z,-2.03
2019-01-25T04:03:37.898Z,-2.12
2019-01-25T04:04:37.905Z,-2.09
2019-01-25T04:05:37.913Z,-2.10
2019-01-25T04:06:37.919Z,-2.02
2019-01-25T04:07:37.927Z,-2.05
2019-01-25T04:08:37.949Z,-1.98
2019-01-25T04:09:38.018Z,-2.06
2019-01-25T04:10:37.947Z,-2.10
2019-01-25T04:11:37.954Z,-2.09
2019-01-25T04:12:37.965Z,-2.00
2019-01-25T04:13:37.967Z,-1.97
2019-01-25T04:14:37.971Z,-2.02
2019-01-25T04:15:37.983Z,-2.00
2019-01-25T04:16:37.986Z,-1.90
2019-01-25T04:17:37.990Z,-1.88
2019-01-25T04:18:38.003Z,-1.92
2019-01-25T04:19:38.012Z,-1.85
2019-01-25T04:20:38.010Z,-1.80
2019-01-25T04:21:38.021Z,-1.84
2019-01-25T04:22:38.026Z,-1.92
2019-01-25T04:23:38.030Z,-1.91
2019-01-25T04:24:38.038Z,-1.95
2019-01-25T04:25:38.047Z,-1.91
2019-01-25T04:26:38.052Z,-1.88
2019-01-25T04:27:38.071Z,-1.85
2019-01-25T04:28:38.082Z,-1.95
2019-01-25T04:29:38.073Z,-1.92
2019-01-25T04:30:38.083Z,-1.80
2019-01-25T04:31:38.084Z,-1.80
2019-01-25T04:32:38.090Z,-1.76
2019-01-25T04:33:38.099Z,-1.82
2019-01-25T04:34:38.104Z,-1.79
2019-01-25T04:35:38.113Z,-1.80
2019-01-25T04:36:38.120Z,-1.90
2019-01-25T04:37:38.122Z,-1.85
2019-01-25T04:38:38.131Z,-1.82
2019-01-25T04:39:38.145Z,-1.84
2019-01-25T04:40:38.144Z,-1.88
2019-01-25T04:41:38.164Z,-1.88
2019-01-25T04:42:38.157Z,-1.76
2019-01-25T04:43:38.169Z,-1.74
2019-01-25T04:44:38.170Z,-1.70
2019-01-25T04:45:38.176Z,-1.74
2019-01-25T04:46:38.184Z,-1.90
2019-01-25T04:47:38.191Z,-1.84
2019-01-25T04:48:38.199Z,-2.00
2019-01-25T04:49:38.204Z,-2.09
2019-01-25T04:50:38.215Z,-2.08
2019-01-25T04:51:38.228Z,-1.98
2019-01-25T04:52:38.228Z,-2.10
2019-01-25T04:53:38.237Z,-1.94
2019-01-25T04:54:38.243Z,-2.03
2019-01-25T04:55:38.247Z,-1.91
2019-01-25T04:56:38.249Z,-1.84
2019-01-25T04:57:38.257Z,-1.94
2019-01-25T04:58:38.262Z,-1.95
2019-01-25T04:59:38.324Z,-1.88
2019-01-25T05:00:38.283Z,-1.90
2019-01-25T05:01:38.295Z,-1.88
2019-01-25T05:02:38.297Z,-2.00
2019-01-25T05:03:38.288Z,-1.88
2019-01-25T05:04:38.326Z,-1.87
2019-01-25T05:05:38.299Z,-1.92
2019-01-25T05:06:38.307Z,-1.91
2019-01-25T05:07:38.315Z,-1.91
2019-01-25T05:08:38.323Z,-1.85
2019-01-25T05:09:38.328Z,-1.92
2019-01-25T05:10:38.354Z,-1.84
2019-01-25T05:11:38.352Z,-1.90
2019-01-25T05:12:38.372Z,-1.90
2019-01-25T05:13:38.354Z,-1.94
2019-01-25T05:14:38.364Z,-2.06
2019-01-25T05:15:38.375Z,-2.13
2019-01-25T05:16:38.377Z,-2.00
2019-01-25T05:17:38.384Z,-2.06
2019-01-25T05:18:38.392Z,-2.06
2019-01-25T05:19:38.397Z,-1.95
2019-01-25T05:20:38.402Z,-1.94
2019-01-25T05:21:38.406Z,-2.00
2019-01-25T05:22:38.417Z,-2.03
2019-01-25T05:23:38.429Z,-2.02
2019-01-25T05:24:38.435Z,-2.09
2019-01-25T05:25:38.440Z,-2.08
2019-01-25T05:26:38.443Z,-2.08
2019-01-25T05:27:38.460Z,-2.05
2019-01-25T05:28:38.458Z,-1.94
2019-01-25T05:29:38.461Z,-2.00
2019-01-25T05:30:38.470Z,-2.03
2019-01-25T05:31:38.475Z,-2.10
2019-01-25T05:32:38.483Z,-2.23
2019-01-25T05:33:38.497Z,-2.15
2019-01-25T05:34:38.498Z,-2.20
2019-01-25T05:35:38.503Z,-2.21
2019-01-25T05:36:38.506Z,-2.12
2019-01-25T05:37:38.544Z,-2.05
2019-01-25T05:38:38.528Z,-1.95
2019-01-25T05:39:38.533Z,-1.91
2019-01-25T05:40:38.539Z,-1.90
2019-01-25T05:41:38.546Z,-1.85
2019-01-25T05:42:38.552Z,-1.92
2019-01-25T05:43:38.560Z,-1.92
2019-01-25T05:44:38.571Z,-2.09
2019-01-25T05:45:38.571Z,-2.08
2019-01-25T05:46:38.606Z,-2.12
2019-01-25T05:47:38.585Z,-2.12
2019-01-25T05:48:38.598Z,-2.05
2019-01-25T05:49:38.602Z,-2.02
2019-01-25T05:50:38.600Z,-2.06
2019-01-25T05:51:38.611Z,-1.95
2019-01-25T05:52:38.622Z,-2.06
2019-01-25T05:53:38.645Z,-2.02
2019-01-25T05:54:38.628Z,-1.91
2019-01-25T05:55:38.639Z,-1.87
2019-01-25T05:56:38.644Z,-1.98
2019-01-25T05:57:38.653Z,-1.91
2019-01-25T05:58:38.663Z,-1.90
2019-01-25T05:59:38.666Z,-1.88
2019-01-25T06:00:38.671Z,-1.88
2019-01-25T06:01:38.694Z,-1.92
2019-01-25T06:02:38.705Z,-1.95
2019-01-25T06:03:38.705Z,-2.00
2019-01-25T06:04:38.712Z,-2.00
2019-01-25T06:05:38.699Z,-2.10
2019-01-25T06:06:38.705Z,-2.09
2019-01-25T06:07:38.715Z,-2.09
2019-01-25T06:08:43.747Z,-2.12
2019-01-25T06:09:38.727Z,-2.12
2019-01-25T06:10:38.731Z,-2.10
2019-01-25T06:11:38.752Z,-2.16
2019-01-25T06:12:38.746Z,-2.18
2019-01-25T06:13:38.752Z,-2.06
2019-01-25T06:14:38.757Z,-2.13
2019-01-25T06:15:38.767Z,-2.08
2019-01-25T06:16:38.770Z,-2.06
2019-01-25T06:17:38.781Z,-2.21
2019-01-25T06:18:38.801Z,-2.18
2019-01-25T06:19:38.794Z,-2.20
2019-01-25T06:20:38.809Z,-2.18
2019-01-25T06:21:38.805Z,-2.30
2019-01-25T06:22:38.813Z,-2.18
2019-01-25T06:23:38.813Z,-2.20
2019-01-25T06:24:38.824Z,-2.18
2019-01-25T06:25:38.829Z,-2.26
2019-01-25T06:26:38.837Z,-2.21
2019-01-25T06:27:38.850Z,-2.23
2019-01-25T06:28:38.854Z,-2.18
2019-01-25T06:29:38.899Z,-2.20
2019-01-25T06:30:38.869Z,-2.21
2019-01-25T06:31:38.866Z,-2.21
2019-01-25T06:32:38.873Z,-2.27
2019-01-25T06:33:38.885Z,-2.24
2019-01-25T06:34:38.889Z,-2.32
2019-01-25T06:35:38.889Z,-2.37
2019-01-25T06:36:38.894Z,-2.32
2019-01-25T06:37:38.905Z,-2.26
2019-01-25T06:38:38.914Z,-2.35
2019-01-25T06:39:38.912Z,-2.40
2019-01-25T06:40:38.921Z,-2.48
2019-01-25T06:41:43.962Z,-2.48
2019-01-25T06:42:38.943Z,-2.50
2019-01-25T06:43:38.944Z,-2.53
2019-01-25T06:44:38.945Z,-2.55
2019-01-25T06:45:38.954Z,-2.45
2019-01-25T06:46:38.960Z,-2.52
2019-01-25T06:47:38.964Z,-2.46
2019-01-25T06:48:38.967Z,-2.45
2019-01-25T06:49:38.976Z,-2.45
2019-01-25T06:50:38.982Z,-2.48
2019-01-25T06:51:38.988Z,-2.48
2019-01-25T06:52:38.995Z,-2.40
2019-01-25T06:53:39.024Z,-2.43
2019-01-25T06:54:39.009Z,-2.46
2019-01-25T06:55:39.030Z,-2.48
2019-01-25T06:56:39.017Z,-2.50
2019-01-25T06:57:39.030Z,-2.50
2019-01-25T06:58:39.031Z,-2.43
2019-01-25T06:59:39.039Z,-2.58
2019-01-25T07:00:39.056Z,-2.61
2019-01-25T07:01:39.109Z,-2.63
2019-01-25T07:02:39.061Z,-2.56
2019-01-25T07:03:39.064Z,-2.49
2019-01-25T07:04:39.073Z,-2.45
2019-01-25T07:05:39.080Z,-2.46
2019-01-25T07:06:39.094Z,-2.55
2019-01-25T07:07:39.102Z,-2.52
2019-01-25T07:08:39.107Z,-2.55
2019-01-25T07:09:39.129Z,-2.43
2019-01-25T07:10:39.107Z,-2.56
2019-01-25T07:11:42.196Z,-2.52
2019-01-25T07:12:39.122Z,-2.53
2019-01-25T07:13:39.148Z,-2.46
2019-01-25T07:14:39.134Z,-2.55
2019-01-25T07:15:39.148Z,-2.53
2019-01-25T07:16:39.168Z,-2.52
2019-01-25T07:17:39.148Z,-2.42
2019-01-25T07:18:39.158Z,-2.52
2019-01-25T07:19:39.163Z,-2.60
2019-01-25T07:20:39.170Z,-2.61
2019-01-25T07:21:39.184Z,-2.79
2019-01-25T07:22:39.187Z,-2.74
2019-01-25T07:23:39.191Z,-2.78
2019-01-25T07:24:39.201Z,-2.68
2019-01-25T07:25:39.201Z,-2.78
2019-01-25T07:26:39.214Z,-2.73
2019-01-25T07:27:39.213Z,-2.70
2019-01-25T07:28:39.227Z,-2.68
2019-01-25T07:29:39.227Z,-2.71
2019-01-25T07:30:39.233Z,-2.70
2019-01-25T07:31:39.275Z,-2.68
2019-01-25T07:32:39.269Z,-2.68
2019-01-25T07:33:39.296Z,-2.67
2019-01-25T07:34:39.305Z,-2.74
2019-01-25T07:35:39.266Z,-2.73
2019-01-25T07:36:39.282Z,-2.68
2019-01-25T07:37:39.299Z,-2.73
2019-01-25T07:38:39.290Z,-2.77
2019-01-25T07:39:39.313Z,-2.79
2019-01-25T07:40:39.295Z,-2.74
2019-01-25T07:41:39.306Z,-2.84
2019-01-25T07:42:39.322Z,-2.88
2019-01-25T07:43:39.333Z,-3.05
2019-01-25T07:44:39.317Z,-2.99
2019-01-25T07:45:39.349Z,-2.88
2019-01-25T07:46:39.346Z,-2.85
2019-01-25T07:47:39.344Z,-2.73
2019-01-25T07:48:39.345Z,-2.78
2019-01-25T07:49:39.387Z,-2.81
2019-01-25T07:50:39.358Z,-2.85
2019-01-25T07:51:39.370Z,-2.78
2019-01-25T07:52:39.399Z,-2.84
2019-01-25T07:53:39.401Z,-2.77
2019-01-25T07:54:39.453Z,-2.86
2019-01-25T07:55:39.388Z,-2.78
2019-01-25T07:56:39.445Z,-2.82
2019-01-25T07:57:39.406Z,-2.70
2019-01-25T07:58:39.449Z,-2.73
2019-01-25T07:59:39.412Z,-2.64
2019-01-25T08:00:39.460Z,-2.81
2019-01-25T08:01:39.457Z,-2.70
2019-01-25T08:02:39.432Z,-2.60
2019-01-25T08:03:39.440Z,-2.67
2019-01-25T08:04:39.571Z,-2.86
2019-01-25T08:05:39.551Z,-2.82
2019-01-25T08:07:39.519Z,-2.88
2019-01-25T08:08:40.154Z,-2.85
2019-01-25T08:09:39.621Z,-2.82
2019-01-25T08:10:39.494Z,-2.70
2019-01-25T08:11:39.510Z,-2.82
2019-01-25T08:12:39.538Z,-2.67
2019-01-25T08:13:39.515Z,-2.53
2019-01-25T08:14:39.507Z,-2.68
2019-01-25T08:15:41.572Z,-2.71
2019-01-25T08:16:39.537Z,-2.81
2019-01-25T08:17:39.546Z,-2.71
2019-01-25T08:18:39.536Z,-2.70
2019-01-25T08:19:39.574Z,-2.67
2019-01-25T08:20:39.558Z,-2.55
2019-01-25T08:21:39.555Z,-2.64
2019-01-25T08:22:39.568Z,-2.60
2019-01-25T08:23:39.622Z,-2.58
2019-01-25T08:25:39.578Z,-2.68
2019-01-25T08:26:39.583Z,-2.61
2019-01-25T08:27:39.620Z,-2.73
2019-01-25T08:28:39.608Z,-2.81
2019-01-25T08:29:39.604Z,-2.82
2019-01-25T08:30:39.621Z,-2.82
2019-01-25T08:31:39.619Z,-2.74
2019-01-25T08:32:39.623Z,-2.82
2019-01-25T08:33:39.633Z,-2.78
2019-01-25T08:34:39.647Z,-2.67
2019-01-25T08:35:39.640Z,-2.60
2019-01-25T08:36:39.654Z,-2.64
2019-01-25T08:37:39.656Z,-2.63
2019-01-25T08:38:39.664Z,-2.60
2019-01-25T08:39:39.693Z,-2.66
2019-01-25T08:40:41.867Z,-2.71
2019-01-25T08:41:39.680Z,-2.66
2019-01-25T08:42:39.698Z,-2.78
2019-01-25T08:43:39.697Z,-2.71
2019-01-25T08:44:39.736Z,-2.58
2019-01-25T08:45:39.726Z,-2.58
2019-01-25T08:46:39.740Z,-2.53
2019-01-25T08:47:39.724Z,-2.37
2019-01-25T08:48:39.942Z,-2.27
2019-01-25T08:49:39.734Z,-2.26
2019-01-25T08:50:39.751Z,-2.34
2019-01-25T08:51:39.753Z,-2.34
2019-01-25T08:52:39.897Z,-2.35
2019-01-25T08:53:41.441Z,-2.29
2019-01-25T08:54:39.764Z,-2.34
2019-01-25T08:55:39.781Z,-2.26
2019-01-25T08:56:39.783Z,-2.24
2019-01-25T08:57:39.780Z,-2.34
2019-01-25T08:58:39.789Z,-2.37
2019-01-25T08:59:39.806Z,-2.49
2019-01-25T09:00:39.801Z,-2.43
2019-01-25T09:01:39.806Z,-2.56
2019-01-25T09:02:39.832Z,-2.55
2019-01-25T09:03:39.818Z,-2.49
2019-01-25T09:04:39.829Z,-2.32
2019-01-25T09:05:39.834Z,-2.34
2019-01-25T09:06:39.844Z,-2.40
2019-01-25T09:07:39.849Z,-2.42
2019-01-25T09:08:39.861Z,-2.50
2019-01-25T09:09:39.858Z,-2.46
2019-01-25T09:10:39.861Z,-2.40
2019-01-25T09:11:39.883Z,-2.39
2019-01-25T09:12:39.877Z,-2.30
2019-01-25T09:13:39.886Z,-2.46
2019-01-25T09:14:39.902Z,-2.15
2019-01-25T09:15:39.897Z,-2.18
2019-01-25T09:16:39.911Z,-2.12
2019-01-25T09:17:39.910Z,-2.09
2019-01-25T09:18:39.916Z,-2.13
2019-01-25T09:19:39.920Z,-2.00
2019-01-25T09:20:39.938Z,-1.97
2019-01-25T09:21:39.953Z,-1.95
2019-01-25T09:22:39.941Z,-1.91
2019-01-25T09:23:39.953Z,-1.90
2019-01-25T09:24:39.962Z,-2.12
2019-01-25T09:25:39.978Z,-2.16
2019-01-25T09:26:39.965Z,-2.23
2019-01-25T09:27:39.972Z,-2.27
2019-01-25T09:28:39.990Z,-2.18
2019-01-25T09:29:39.988Z,-2.13
2019-01-25T09:30:40.012Z,-2.06
2019-01-25T09:31:40.001Z,-2.10
2019-01-25T09:32:40.029Z,-1.92
2019-01-25T09:33:40.011Z,-1.92
2019-01-25T09:35:40.029Z,-1.91
2019-01-25T09:36:40.035Z,-1.87
2019-01-25T09:37:40.053Z,-1.94
2019-01-25T09:38:40.047Z,-1.80
2019-01-25T09:39:40.053Z,-1.97
2019-01-25T09:40:40.059Z,-1.82
2019-01-25T09:41:40.068Z,-1.85
2019-01-25T09:42:40.076Z,-1.91
2019-01-25T09:43:40.087Z,-2.00
2019-01-25T09:44:40.087Z,-1.97
2019-01-25T09:45:40.106Z,-2.09
2019-01-25T09:46:40.116Z,-2.00
2019-01-25T09:47:40.111Z,-1.92
2019-01-25T09:48:40.117Z,-1.91
2019-01-25T09:49:40.124Z,-1.88
2019-01-25T09:50:40.133Z,-1.87
2019-01-25T09:51:40.139Z,-1.79
2019-01-25T09:52:40.141Z,-1.67
2019-01-25T09:53:40.149Z,-1.73
2019-01-25T09:54:40.155Z,-1.84
2019-01-25T09:55:40.165Z,-1.77
2019-01-25T09:56:42.644Z,-1.72
2019-01-25T09:57:40.186Z,-1.67
2019-01-25T09:58:40.177Z,-1.69
2019-01-25T09:59:40.192Z,-1.64
2019-01-25T10:00:40.195Z,-1.56
2019-01-25T10:01:40.195Z,-1.59
2019-01-25T10:02:40.205Z,-1.72
2019-01-25T10:03:40.209Z,-1.70
2019-01-25T10:04:40.217Z,-1.64
2019-01-25T10:05:40.232Z,-1.67
2019-01-25T10:06:40.233Z,-1.59
2019-01-25T10:07:40.239Z,-1.64
2019-01-25T10:08:40.247Z,-1.69
2019-01-25T10:09:40.268Z,-1.72
2019-01-25T10:10:40.262Z,-1.72
2019-01-25T10:11:40.266Z,-1.58
2019-01-25T10:12:43.365Z,-1.56
2019-01-25T10:13:40.282Z,-1.67
2019-01-25T10:14:40.288Z,-1.69
2019-01-25T10:15:40.298Z,-1.64
2019-01-25T10:16:40.302Z,-1.54
2019-01-25T10:17:40.311Z,-1.49
2019-01-25T10:18:40.331Z,-1.37
2019-01-25T10:19:40.328Z,-1.34
2019-01-25T10:20:40.340Z,-1.46
2019-01-25T10:21:40.339Z,-1.34
2019-01-25T10:22:40.346Z,-1.41
2019-01-25T10:23:40.352Z,-1.46
2019-01-25T10:24:40.360Z,-1.48
2019-01-25T10:25:40.386Z,-1.38
2019-01-25T10:26:40.376Z,-1.33
2019-01-25T10:27:40.397Z,-1.33
2019-01-25T10:28:40.393Z,-1.30
2019-01-25T10:29:40.396Z,-1.25
2019-01-25T10:30:40.449Z,-1.28
2019-01-25T10:31:40.422Z,-1.31
2019-01-25T10:32:40.429Z,-1.17
2019-01-25T10:33:40.433Z,-1.17
2019-01-25T10:34:40.444Z,-1.15
2019-01-25T10:35:40.441Z,-1.17
2019-01-25T10:36:40.449Z,-1.34
2019-01-25T10:37:40.457Z,-1.34
2019-01-25T10:38:40.462Z,-1.34
2019-01-25T10:39:40.467Z,-1.31
2019-01-25T10:40:40.477Z,-1.35
2019-01-25T10:41:40.504Z,-1.25
2019-01-25T10:42:45.620Z,-1.33
2019-01-25T10:43:40.530Z,-1.30
2019-01-25T10:44:40.530Z,-1.30
2019-01-25T10:45:40.531Z,-1.30
2019-01-25T10:46:40.522Z,-1.34
2019-01-25T10:47:40.537Z,-1.28
2019-01-25T10:48:40.546Z,-1.30
2019-01-25T10:49:40.561Z,-1.23
2019-01-25T10:50:40.561Z,-1.28
2019-01-25T10:51:40.567Z,-1.25
2019-01-25T10:52:40.565Z,-1.30
2019-01-25T10:53:40.573Z,-1.30
2019-01-25T10:54:40.588Z,-1.33
2019-01-25T10:55:40.598Z,-1.28
2019-01-25T10:56:42.042Z,-1.12
2019-01-25T10:57:40.603Z,-1.13
2019-01-25T10:58:40.608Z,-1.04
2019-01-25T10:59:40.613Z,-1.05
2019-01-25T11:00:40.625Z,-0.94
2019-01-25T11:01:40.628Z,-0.86
2019-01-25T11:02:40.635Z,-0.85
2019-01-25T11:03:40.645Z,-0.83
2019-01-25T11:04:40.669Z,-0.83
2019-01-25T11:05:40.661Z,-0.94
2019-01-25T11:06:40.685Z,-0.95
2019-01-25T11:07:40.685Z,-0.97
2019-01-25T11:08:40.683Z,-0.85
2019-01-25T11:09:40.702Z,-0.95
2019-01-25T11:10:40.713Z,-0.91
2019-01-25T11:11:40.724Z,-0.89
2019-01-25T11:12:40.708Z,-0.83
2019-01-25T11:13:40.717Z,-0.78
2019-01-25T11:14:40.726Z,-0.78
2019-01-25T11:15:40.734Z,-0.72
2019-01-25T11:16:40.742Z,-0.79
2019-01-25T11:17:40.752Z,-0.70
2019-01-25T11:18:40.754Z,-0.78
2019-01-25T11:19:40.761Z,-0.72
2019-01-25T11:20:40.770Z,-0.55
2019-01-25T11:21:40.778Z,-0.51
2019-01-25T11:22:40.785Z,-0.42
2019-01-25T11:23:40.799Z,-0.39
2019-01-25T11:24:40.815Z,-0.49
2019-01-25T11:25:40.808Z,-0.51
2019-01-25T11:26:40.818Z,-0.51
2019-01-25T11:27:40.836Z,-0.46
2019-01-25T11:28:40.840Z,-0.52
2019-01-25T11:29:40.854Z,-0.46
2019-01-25T11:30:40.852Z,-0.60
2019-01-25T11:31:40.885Z,-0.52
2019-01-25T11:32:40.871Z,-0.43
2019-01-25T11:33:40.871Z,-0.47
2019-01-25T11:34:40.876Z,-0.55
2019-01-25T11:35:40.884Z,-0.70
2019-01-25T11:36:40.892Z,-0.61
2019-01-25T11:37:42.029Z,-0.69
2019-01-25T11:38:40.906Z,-0.72
2019-01-25T11:39:40.920Z,-0.85
2019-01-25T11:40:40.925Z,-0.86
2019-01-25T11:41:40.932Z,-0.80
2019-01-25T11:42:40.944Z,-0.76
2019-01-25T11:43:40.959Z,-0.76
2019-01-25T11:44:40.954Z,-0.73
2019-01-25T11:45:40.962Z,-0.79
2019-01-25T11:46:40.972Z,-0.76
2019-01-25T11:47:40.997Z,-0.79
2019-01-25T11:49:40.996Z,-0.76
2019-01-25T11:50:41.002Z,-0.78
2019-01-25T11:51:41.011Z,-0.75
2019-01-25T11:52:41.017Z,-0.70
2019-01-25T11:53:41.025Z,-0.94
2019-01-25T11:54:41.035Z,-0.85
2019-01-25T11:55:41.039Z,-0.98
2019-01-25T11:56:41.045Z,-0.98
2019-01-25T11:57:43.275Z,-0.92
2019-01-25T11:58:41.075Z,-0.89
2019-01-25T11:59:41.141Z,-0.92
2019-01-25T12:00:41.340Z,-0.95
2019-01-25T12:01:41.092Z,-0.95
2019-01-25T12:02:41.100Z,-0.91
2019-01-25T12:03:41.118Z,-0.85
2019-01-25T12:04:41.107Z,-0.85
2019-01-25T12:05:41.117Z,-0.73
2019-01-25T12:06:41.140Z,-0.79
2019-01-25T12:07:41.132Z,-0.73
2019-01-25T12:08:41.143Z,-0.75
2019-01-25T12:09:41.149Z,-0.67
2019-01-25T12:10:42.635Z,-0.73
2019-01-25T12:11:41.165Z,-0.69
2019-01-25T12:12:41.171Z,-0.69
2019-01-25T12:13:41.198Z,-0.76
2019-01-25T12:14:41.184Z,-0.75
2019-01-25T12:15:41.230Z,-0.79
2019-01-25T12:16:41.210Z,-0.78
2019-01-25T12:17:41.209Z,-0.78
2019-01-25T12:18:41.223Z,-0.75
2019-01-25T12:19:41.231Z,-0.58
2019-01-25T12:20:41.227Z,-0.69
2019-01-25T12:21:41.238Z,-0.72
2019-01-25T12:22:41.248Z,-0.67
2019-01-25T12:23:41.258Z,-0.60
2019-01-25T12:24:41.264Z,-0.58
2019-01-25T12:25:41.271Z,-0.61
2019-01-25T12:26:42.936Z,-0.67
2019-01-25T12:27:41.284Z,-0.62
2019-01-25T12:28:41.288Z,-0.62
2019-01-25T12:29:41.303Z,-0.62
2019-01-25T12:30:42.163Z,-0.61
2019-01-25T12:31:41.315Z,-0.57
2019-01-25T12:32:41.339Z,-0.57
2019-01-25T12:33:41.332Z,-0.61
2019-01-25T12:34:41.333Z,-0.60
2019-01-25T12:35:41.344Z,-0.47
2019-01-25T12:36:41.348Z,-0.57
2019-01-25T12:37:41.364Z,-0.61
2019-01-25T12:38:41.372Z,-0.52
2019-01-25T12:39:41.376Z,-0.44
2019-01-25T12:40:42.338Z,-0.43
2019-01-25T12:41:41.388Z,-0.37
2019-01-25T12:42:41.393Z,-0.42
2019-01-25T12:43:41.402Z,-0.31
2019-01-25T12:45:41.419Z,-0.31
2019-01-25T12:46:41.430Z,-0.22
2019-01-25T12:47:41.437Z,-0.28
2019-01-25T12:48:41.457Z,-0.39
2019-01-25T12:49:41.448Z,-0.31
2019-01-25T12:50:41.513Z,-0.26
2019-01-25T12:51:41.464Z,-0.33
2019-01-25T12:52:41.475Z,-0.33
2019-01-25T12:53:41.481Z,-0.33
2019-01-25T12:54:41.490Z,-0.34
2019-01-25T12:55:41.499Z,-0.31
2019-01-25T12:56:41.504Z,-0.29
2019-01-25T12:57:41.510Z,-0.28
2019-01-25T12:58:41.541Z,-0.31
2019-01-25T12:59:41.539Z,-0.23